sensor_id;sensor_type;location;lat;lon;timestamp;pressure;altitude;pressure_sealevel;temperature
72405;BMP280;60395;52.020;113.548;2023-03-01T00:00:12;93523.16;;;-13.00
72405;BMP280;60395;52.020;113.548;2023-03-01T00:03:17;93520.44;;;-13.02
72405;BMP280;60395;52.020;113.548;2023-03-01T00:06:29;93514.41;;;-12.99
72405;BMP280;60395;52.020;113.548;2023-03-01T00:09:36;93514.22;;;-12.72
72405;BMP280;60395;52.020;113.548;2023-03-01T00:12:53;93513.25;;;-12.26
72405;BMP280;60395;52.020;113.548;2023-03-01T00:16:10;93521.09;;;-11.86
72405;BMP280;60395;52.020;113.548;2023-03-01T00:19:16;93512.03;;;-11.43
72405;BMP280;60395;52.020;113.548;2023-03-01T00:22:21;93517.91;;;-10.95
72405;BMP280;60395;52.020;113.548;2023-03-01T00:25:25;93512.81;;;-10.32
72405;BMP280;60395;52.020;113.548;2023-03-01T00:28:30;93530.31;;;-9.54
72405;BMP280;60395;52.020;113.548;2023-03-01T00:31:37;93522.94;;;-9.17
72405;BMP280;60395;52.020;113.548;2023-03-01T00:34:41;93510.44;;;-9.23
72405;BMP280;60395;52.020;113.548;2023-03-01T00:37:45;93517.66;;;-9.37
72405;BMP280;60395;52.020;113.548;2023-03-01T00:40:49;93509.94;;;-9.46
72405;BMP280;60395;52.020;113.548;2023-03-01T00:43:53;93512.44;;;-9.64
72405;BMP280;60395;52.020;113.548;2023-03-01T00:46:56;93520.47;;;-9.75
72405;BMP280;60395;52.020;113.548;2023-03-01T00:50:09;93520.75;;;-9.88
72405;BMP280;60395;52.020;113.548;2023-03-01T00:53:14;93528.00;;;-9.92
72405;BMP280;60395;52.020;113.548;2023-03-01T00:56:18;93521.56;;;-9.93
72405;BMP280;60395;52.020;113.548;2023-03-01T00:59:23;93521.06;;;-9.91
72405;BMP280;60395;52.020;113.548;2023-03-01T01:02:26;93516.19;;;-9.97
72405;BMP280;60395;52.020;113.548;2023-03-01T01:05:30;93518.06;;;-9.98
72405;BMP280;60395;52.020;113.548;2023-03-01T01:08:33;93524.97;;;-9.90
72405;BMP280;60395;52.020;113.548;2023-03-01T01:11:37;93522.38;;;-9.83
72405;BMP280;60395;52.020;113.548;2023-03-01T01:14:40;93524.66;;;-9.70
72405;BMP280;60395;52.020;113.548;2023-03-01T01:17:43;93536.28;;;-9.59
72405;BMP280;60395;52.020;113.548;2023-03-01T01:20:47;93530.78;;;-9.48
72405;BMP280;60395;52.020;113.548;2023-03-01T01:23:50;93523.09;;;-9.40
72405;BMP280;60395;52.020;113.548;2023-03-01T01:26:56;93528.28;;;-9.31
72405;BMP280;60395;52.020;113.548;2023-03-01T01:30:00;93516.31;;;-9.20
72405;BMP280;60395;52.020;113.548;2023-03-01T01:33:03;93523.84;;;-9.05
72405;BMP280;60395;52.020;113.548;2023-03-01T01:36:07;93512.34;;;-8.89
72405;BMP280;60395;52.020;113.548;2023-03-01T01:39:11;93506.84;;;-8.85
72405;BMP280;60395;52.020;113.548;2023-03-01T01:42:17;93511.19;;;-8.78
72405;BMP280;60395;52.020;113.548;2023-03-01T01:45:32;93518.72;;;-8.71
72405;BMP280;60395;52.020;113.548;2023-03-01T01:48:42;93519.34;;;-8.63
72405;BMP280;60395;52.020;113.548;2023-03-01T01:51:49;93523.22;;;-8.62
72405;BMP280;60395;52.020;113.548;2023-03-01T01:58:03;93518.88;;;-8.51
72405;BMP280;60395;52.020;113.548;2023-03-01T02:01:08;93515.81;;;-8.50
72405;BMP280;60395;52.020;113.548;2023-03-01T02:04:11;93516.38;;;-8.42
72405;BMP280;60395;52.020;113.548;2023-03-01T02:07:24;93525.00;;;-8.37
72405;BMP280;60395;52.020;113.548;2023-03-01T02:10:29;93516.16;;;-8.36
72405;BMP280;60395;52.020;113.548;2023-03-01T02:13:36;93511.09;;;-8.27
72405;BMP280;60395;52.020;113.548;2023-03-01T02:16:40;93514.38;;;-8.16
72405;BMP280;60395;52.020;113.548;2023-03-01T02:19:57;93510.38;;;-8.10
72405;BMP280;60395;52.020;113.548;2023-03-01T02:23:03;93510.97;;;-8.02
72405;BMP280;60395;52.020;113.548;2023-03-01T02:26:11;93509.09;;;-8.01
72405;BMP280;60395;52.020;113.548;2023-03-01T02:29:18;93499.44;;;-7.93
72405;BMP280;60395;52.020;113.548;2023-03-01T02:32:21;93498.84;;;-7.84
72405;BMP280;60395;52.020;113.548;2023-03-01T02:35:29;93491.47;;;-7.70
72405;BMP280;60395;52.020;113.548;2023-03-01T02:38:33;93483.84;;;-7.61
72405;BMP280;60395;52.020;113.548;2023-03-01T02:41:37;93481.84;;;-7.43
72405;BMP280;60395;52.020;113.548;2023-03-01T02:44:41;93483.78;;;-7.24
72405;BMP280;60395;52.020;113.548;2023-03-01T02:47:45;93481.09;;;-7.07
72405;BMP280;60395;52.020;113.548;2023-03-01T02:51:02;93464.97;;;-6.90
72405;BMP280;60395;52.020;113.548;2023-03-01T02:57:28;93458.03;;;-6.59
72405;BMP280;60395;52.020;113.548;2023-03-01T03:00:37;93452.81;;;-6.51
72405;BMP280;60395;52.020;113.548;2023-03-01T03:03:50;93449.13;;;-6.39
72405;BMP280;60395;52.020;113.548;2023-03-01T03:06:58;93441.78;;;-6.23
72405;BMP280;60395;52.020;113.548;2023-03-01T03:10:04;93445.81;;;-6.20
72405;BMP280;60395;52.020;113.548;2023-03-01T03:13:13;93443.09;;;-6.12
72405;BMP280;60395;52.020;113.548;2023-03-01T03:16:18;93436.34;;;-6.08
72405;BMP280;60395;52.020;113.548;2023-03-01T03:19:22;93445.59;;;-6.03
72405;BMP280;60395;52.020;113.548;2023-03-01T03:22:25;93429.25;;;-5.88
72405;BMP280;60395;52.020;113.548;2023-03-01T03:25:31;93434.81;;;-5.70
72405;BMP280;60395;52.020;113.548;2023-03-01T03:28:35;93429.16;;;-5.57
72405;BMP280;60395;52.020;113.548;2023-03-01T03:31:38;93428.25;;;-5.40
72405;BMP280;60395;52.020;113.548;2023-03-01T03:34:41;93423.13;;;-5.19
72405;BMP280;60395;52.020;113.548;2023-03-01T03:37:45;93430.75;;;-4.98
72405;BMP280;60395;52.020;113.548;2023-03-01T03:41:07;93417.66;;;-4.80
72405;BMP280;60395;52.020;113.548;2023-03-01T03:44:11;93404.16;;;-4.58
72405;BMP280;60395;52.020;113.548;2023-03-01T03:47:14;93407.19;;;-4.26
72405;BMP280;60395;52.020;113.548;2023-03-01T03:50:18;93405.16;;;-4.05
72405;BMP280;60395;52.020;113.548;2023-03-01T03:53:24;93408.69;;;-3.86
72405;BMP280;60395;52.020;113.548;2023-03-01T03:56:27;93398.38;;;-3.75
72405;BMP280;60395;52.020;113.548;2023-03-01T03:59:31;93398.25;;;-3.65
72405;BMP280;60395;52.020;113.548;2023-03-01T04:02:35;93388.53;;;-3.67
72405;BMP280;60395;52.020;113.548;2023-03-01T04:05:39;93385.81;;;-3.57
72405;BMP280;60395;52.020;113.548;2023-03-01T04:08:42;93371.25;;;-3.41
72405;BMP280;60395;52.020;113.548;2023-03-01T04:11:46;93372.41;;;-3.30
72405;BMP280;60395;52.020;113.548;2023-03-01T04:14:52;93359.78;;;-3.26
72405;BMP280;60395;52.020;113.548;2023-03-01T04:17:56;93363.31;;;-3.19
72405;BMP280;60395;52.020;113.548;2023-03-01T04:21:00;93351.91;;;-3.16
72405;BMP280;60395;52.020;113.548;2023-03-01T04:24:18;93350.09;;;-3.14
72405;BMP280;60395;52.020;113.548;2023-03-01T04:28:05;93334.41;;;-3.06
72405;BMP280;60395;52.020;113.548;2023-03-01T04:31:33;93336.44;;;-2.91
72405;BMP280;60395;52.020;113.548;2023-03-01T04:34:50;93330.91;;;-2.86
72405;BMP280;60395;52.020;113.548;2023-03-01T04:38:22;93308.53;;;-2.97
72405;BMP280;60395;52.020;113.548;2023-03-01T04:41:53;93315.03;;;-2.82
72405;BMP280;60395;52.020;113.548;2023-03-01T04:44:57;93306.34;;;-2.75
72405;BMP280;60395;52.020;113.548;2023-03-01T04:48:00;93309.50;;;-2.63
72405;BMP280;60395;52.020;113.548;2023-03-01T04:51:04;93307.47;;;-2.51
72405;BMP280;60395;52.020;113.548;2023-03-01T04:54:08;93301.84;;;-2.47
72405;BMP280;60395;52.020;113.548;2023-03-01T04:57:13;93300.06;;;-2.58
72405;BMP280;60395;52.020;113.548;2023-03-01T05:00:16;93292.28;;;-2.60
72405;BMP280;60395;52.020;113.548;2023-03-01T05:03:26;93281.66;;;-2.53
72405;BMP280;60395;52.020;113.548;2023-03-01T05:06:29;93271.53;;;-2.35
72405;BMP280;60395;52.020;113.548;2023-03-01T05:09:33;93259.22;;;-2.23
72405;BMP280;60395;52.020;113.548;2023-03-01T05:12:36;93262.91;;;-2.12
72405;BMP280;60395;52.020;113.548;2023-03-01T05:15:40;93243.13;;;-2.08
72405;BMP280;60395;52.020;113.548;2023-03-01T05:18:43;93246.13;;;-2.13
72405;BMP280;60395;52.020;113.548;2023-03-01T05:21:47;93250.13;;;-2.10
72405;BMP280;60395;52.020;113.548;2023-03-01T05:25:06;93242.84;;;-2.00
72405;BMP280;60395;52.020;113.548;2023-03-01T05:28:13;93230.28;;;-1.92
72405;BMP280;60395;52.020;113.548;2023-03-01T05:31:16;93225.91;;;-1.89
72405;BMP280;60395;52.020;113.548;2023-03-01T05:34:34;93223.31;;;-1.89
72405;BMP280;60395;52.020;113.548;2023-03-01T05:37:39;93221.31;;;-1.91
72405;BMP280;60395;52.020;113.548;2023-03-01T05:40:43;93228.00;;;-1.86
72405;BMP280;60395;52.020;113.548;2023-03-01T05:43:47;93205.97;;;-1.89
72405;BMP280;60395;52.020;113.548;2023-03-01T05:46:51;93208.13;;;-1.99
72405;BMP280;60395;52.020;113.548;2023-03-01T05:49:54;93208.13;;;-1.99
72405;BMP280;60395;52.020;113.548;2023-03-01T05:53:03;93197.16;;;-1.99
72405;BMP280;60395;52.020;113.548;2023-03-01T05:56:08;93194.66;;;-1.97
72405;BMP280;60395;52.020;113.548;2023-03-01T05:59:12;93181.88;;;-1.95
72405;BMP280;60395;52.020;113.548;2023-03-01T06:02:16;93179.56;;;-1.89
72405;BMP280;60395;52.020;113.548;2023-03-01T06:05:20;93175.81;;;-1.86
72405;BMP280;60395;52.020;113.548;2023-03-01T06:08:23;93180.41;;;-1.85
72405;BMP280;60395;52.020;113.548;2023-03-01T06:11:29;93169.28;;;-1.74
72405;BMP280;60395;52.020;113.548;2023-03-01T06:14:33;93166.38;;;-1.66
72405;BMP280;60395;52.020;113.548;2023-03-01T06:17:37;93164.38;;;-1.68
72405;BMP280;60395;52.020;113.548;2023-03-01T06:20:40;93169.91;;;-1.57
72405;BMP280;60395;52.020;113.548;2023-03-01T06:23:44;93144.84;;;-1.57
72405;BMP280;60395;52.020;113.548;2023-03-01T06:26:47;93165.59;;;-1.53
72405;BMP280;60395;52.020;113.548;2023-03-01T06:29:50;93143.00;;;-1.54
72405;BMP280;60395;52.020;113.548;2023-03-01T06:32:54;93150.56;;;-1.58
72405;BMP280;60395;52.020;113.548;2023-03-01T06:36:03;93139.28;;;-1.67
72405;BMP280;60395;52.020;113.548;2023-03-01T06:39:07;93130.09;;;-1.72
72405;BMP280;60395;52.020;113.548;2023-03-01T06:42:11;93123.84;;;-1.67
72405;BMP280;60395;52.020;113.548;2023-03-01T06:45:14;93120.88;;;-1.77
72405;BMP280;60395;52.020;113.548;2023-03-01T06:48:17;93116.31;;;-1.94
72405;BMP280;60395;52.020;113.548;2023-03-01T06:51:21;93105.00;;;-2.03
72405;BMP280;60395;52.020;113.548;2023-03-01T06:54:24;93090.31;;;-2.00
72405;BMP280;60395;52.020;113.548;2023-03-01T06:57:27;93096.78;;;-1.99
72405;BMP280;60395;52.020;113.548;2023-03-01T07:00:31;93091.03;;;-1.98
72405;BMP280;60395;52.020;113.548;2023-03-01T07:03:34;93075.59;;;-1.98
72405;BMP280;60395;52.020;113.548;2023-03-01T07:06:38;93073.38;;;-1.90
72405;BMP280;60395;52.020;113.548;2023-03-01T07:09:41;93071.31;;;-1.93
72405;BMP280;60395;52.020;113.548;2023-03-01T07:12:44;93053.19;;;-1.95
72405;BMP280;60395;52.020;113.548;2023-03-01T07:15:49;93050.72;;;-1.93
72405;BMP280;60395;52.020;113.548;2023-03-01T07:18:52;93050.63;;;-1.95
72405;BMP280;60395;52.020;113.548;2023-03-01T07:21:55;93050.38;;;-2.01
72405;BMP280;60395;52.020;113.548;2023-03-01T07:24:59;93045.91;;;-2.01
72405;BMP280;60395;52.020;113.548;2023-03-01T07:28:02;93035.59;;;-2.01
72405;BMP280;60395;52.020;113.548;2023-03-01T07:31:06;93028.78;;;-1.94
72405;BMP280;60395;52.020;113.548;2023-03-01T07:34:09;93030.44;;;-1.85
72405;BMP280;60395;52.020;113.548;2023-03-01T07:37:13;93018.47;;;-1.79
72405;BMP280;60395;52.020;113.548;2023-03-01T07:40:17;93014.47;;;-1.82
72405;BMP280;60395;52.020;113.548;2023-03-01T07:43:20;93020.41;;;-1.95
72405;BMP280;60395;52.020;113.548;2023-03-01T07:46:23;93015.53;;;-2.04
72405;BMP280;60395;52.020;113.548;2023-03-01T07:49:26;93006.63;;;-2.01
72405;BMP280;60395;52.020;113.548;2023-03-01T07:52:31;92997.25;;;-1.95
72405;BMP280;60395;52.020;113.548;2023-03-01T07:55:34;92989.50;;;-1.79
72405;BMP280;60395;52.020;113.548;2023-03-01T07:58:39;92983.59;;;-1.82
72405;BMP280;60395;52.020;113.548;2023-03-01T08:01:43;92995.56;;;-1.88
72405;BMP280;60395;52.020;113.548;2023-03-01T08:04:46;92988.34;;;-1.92
72405;BMP280;60395;52.020;113.548;2023-03-01T08:07:50;92996.06;;;-1.92
72405;BMP280;60395;52.020;113.548;2023-03-01T08:10:56;92994.09;;;-1.93
72405;BMP280;60395;52.020;113.548;2023-03-01T08:13:59;92997.59;;;-2.02
72405;BMP280;60395;52.020;113.548;2023-03-01T08:17:03;92989.47;;;-2.13
72405;BMP280;60395;52.020;113.548;2023-03-01T08:20:06;92991.00;;;-2.23
72405;BMP280;60395;52.020;113.548;2023-03-01T08:23:10;92976.13;;;-2.25
72405;BMP280;60395;52.020;113.548;2023-03-01T08:26:19;92965.44;;;-2.19
72405;BMP280;60395;52.020;113.548;2023-03-01T08:29:23;92956.91;;;-2.24
72405;BMP280;60395;52.020;113.548;2023-03-01T08:32:29;92943.72;;;-2.48
72405;BMP280;60395;52.020;113.548;2023-03-01T08:35:32;92939.38;;;-2.76
72405;BMP280;60395;52.020;113.548;2023-03-01T08:38:36;92936.16;;;-2.93
72405;BMP280;60395;52.020;113.548;2023-03-01T08:41:40;92930.53;;;-3.03
72405;BMP280;60395;52.020;113.548;2023-03-01T08:44:44;92932.94;;;-3.22
72405;BMP280;60395;52.020;113.548;2023-03-01T08:47:52;92928.75;;;-3.16
72405;BMP280;60395;52.020;113.548;2023-03-01T08:50:56;92917.78;;;-3.01
72405;BMP280;60395;52.020;113.548;2023-03-01T08:54:00;92916.41;;;-2.88
72405;BMP280;60395;52.020;113.548;2023-03-01T08:57:03;92909.09;;;-2.78
72405;BMP280;60395;52.020;113.548;2023-03-01T09:00:07;92911.09;;;-2.76
72405;BMP280;60395;52.020;113.548;2023-03-01T09:03:11;92905.28;;;-2.77
72405;BMP280;60395;52.020;113.548;2023-03-01T09:06:15;92894.06;;;-2.68
72405;BMP280;60395;52.020;113.548;2023-03-01T09:09:19;92886.63;;;-2.62
72405;BMP280;60395;52.020;113.548;2023-03-01T09:12:23;92883.13;;;-2.68
72405;BMP280;60395;52.020;113.548;2023-03-01T09:15:28;92885.88;;;-2.96
72405;BMP280;60395;52.020;113.548;2023-03-01T09:18:32;92885.75;;;-3.15
72405;BMP280;60395;52.020;113.548;2023-03-01T09:21:37;92875.50;;;-3.29
72405;BMP280;60395;52.020;113.548;2023-03-01T09:24:44;92868.47;;;-3.44
72405;BMP280;60395;52.020;113.548;2023-03-01T09:27:51;92865.78;;;-3.62
72405;BMP280;60395;52.020;113.548;2023-03-01T09:30:58;92861.94;;;-3.77
72405;BMP280;60395;52.020;113.548;2023-03-01T09:34:02;92857.63;;;-3.88
72405;BMP280;60395;52.020;113.548;2023-03-01T09:37:06;92850.50;;;-3.89
72405;BMP280;60395;52.020;113.548;2023-03-01T09:40:14;92846.41;;;-3.94
72405;BMP280;60395;52.020;113.548;2023-03-01T09:46:40;92852.75;;;-4.11
72405;BMP280;60395;52.020;113.548;2023-03-01T09:49:51;92843.34;;;-4.20
72405;BMP280;60395;52.020;113.548;2023-03-01T09:53:06;92845.06;;;-4.38
72405;BMP280;60395;52.020;113.548;2023-03-01T09:56:53;92838.34;;;-4.46
72405;BMP280;60395;52.020;113.548;2023-03-01T10:03:32;92837.13;;;-4.58
72405;BMP280;60395;52.020;113.548;2023-03-01T10:06:41;92835.34;;;-4.69
72405;BMP280;60395;52.020;113.548;2023-03-01T10:09:48;92823.97;;;-4.80
72405;BMP280;60395;52.020;113.548;2023-03-01T10:12:55;92822.25;;;-4.89
72405;BMP280;60395;52.020;113.548;2023-03-01T10:16:08;92815.59;;;-4.94
72405;BMP280;60395;52.020;113.548;2023-03-01T10:22:36;92810.47;;;-4.94
72405;BMP280;60395;52.020;113.548;2023-03-01T10:29:03;92801.66;;;-5.05
72405;BMP280;60395;52.020;113.548;2023-03-01T10:32:10;92799.44;;;-5.10
72405;BMP280;60395;52.020;113.548;2023-03-01T10:35:32;92788.38;;;-5.15
72405;BMP280;60395;52.020;113.548;2023-03-01T10:38:52;92787.72;;;-5.15
72405;BMP280;60395;52.020;113.548;2023-03-01T10:42:02;92772.91;;;-5.17
72405;BMP280;60395;52.020;113.548;2023-03-01T10:45:34;92758.69;;;-5.20
72405;BMP280;60395;52.020;113.548;2023-03-01T10:48:38;92754.16;;;-5.22
72405;BMP280;60395;52.020;113.548;2023-03-01T10:51:44;92763.72;;;-5.22
72405;BMP280;60395;52.020;113.548;2023-03-01T10:54:55;92745.41;;;-5.30
72405;BMP280;60395;52.020;113.548;2023-03-01T10:58:20;92749.94;;;-5.29
72405;BMP280;60395;52.020;113.548;2023-03-01T11:01:30;92751.09;;;-5.32
72405;BMP280;60395;52.020;113.548;2023-03-01T11:04:36;92739.44;;;-5.35
72405;BMP280;60395;52.020;113.548;2023-03-01T11:07:51;92729.97;;;-5.32
72405;BMP280;60395;52.020;113.548;2023-03-01T11:11:18;92731.94;;;-5.31
72405;BMP280;60395;52.020;113.548;2023-03-01T11:14:23;92722.28;;;-5.32
72405;BMP280;60395;52.020;113.548;2023-03-01T11:17:33;92718.13;;;-5.39
72405;BMP280;60395;52.020;113.548;2023-03-01T11:20:56;92707.00;;;-5.44
72405;BMP280;60395;52.020;113.548;2023-03-01T11:24:03;92700.78;;;-5.41
72405;BMP280;60395;52.020;113.548;2023-03-01T11:27:26;92712.81;;;-5.30
72405;BMP280;60395;52.020;113.548;2023-03-01T11:31:20;92701.72;;;-5.21
72405;BMP280;60395;52.020;113.548;2023-03-01T11:34:21;92693.16;;;-5.11
72405;BMP280;60395;52.020;113.548;2023-03-01T11:37:53;92685.09;;;-5.06
72405;BMP280;60395;52.020;113.548;2023-03-01T11:41:14;92689.94;;;-4.98
72405;BMP280;60395;52.020;113.548;2023-03-01T11:44:29;92685.06;;;-4.92
72405;BMP280;60395;52.020;113.548;2023-03-01T11:47:47;92673.13;;;-4.88
72405;BMP280;60395;52.020;113.548;2023-03-01T11:50:57;92678.34;;;-4.86
72405;BMP280;60395;52.020;113.548;2023-03-01T11:54:13;92679.09;;;-4.83
72405;BMP280;60395;52.020;113.548;2023-03-01T12:01:19;92665.03;;;-4.82
72405;BMP280;60395;52.020;113.548;2023-03-01T12:05:05;92664.16;;;-4.73
72405;BMP280;60395;52.020;113.548;2023-03-01T12:08:50;92658.06;;;-4.66
72405;BMP280;60395;52.020;113.548;2023-03-01T12:22:31;92606.31;;;-4.62
72405;BMP280;60395;52.020;113.548;2023-03-01T12:25:45;92595.41;;;-4.63
72405;BMP280;60395;52.020;113.548;2023-03-01T12:29:30;92590.97;;;-4.62
72405;BMP280;60395;52.020;113.548;2023-03-01T12:36:14;92590.53;;;-4.57
72405;BMP280;60395;52.020;113.548;2023-03-01T12:49:16;92572.78;;;-4.21
72405;BMP280;60395;52.020;113.548;2023-03-01T12:55:39;92551.72;;;-4.20
72405;BMP280;60395;52.020;113.548;2023-03-01T13:08:42;92510.66;;;-4.53
72405;BMP280;60395;52.020;113.548;2023-03-01T13:11:52;92509.16;;;-4.58
72405;BMP280;60395;52.020;113.548;2023-03-01T13:14:55;92512.78;;;-4.48
72405;BMP280;60395;52.020;113.548;2023-03-01T13:18:03;92513.75;;;-4.39
72405;BMP280;60395;52.020;113.548;2023-03-01T13:21:12;92491.94;;;-4.40
72405;BMP280;60395;52.020;113.548;2023-03-01T13:24:40;92483.66;;;-4.38
72405;BMP280;60395;52.020;113.548;2023-03-01T13:27:45;92478.16;;;-4.49
72405;BMP280;60395;52.020;113.548;2023-03-01T13:30:49;92484.09;;;-4.60
72405;BMP280;60395;52.020;113.548;2023-03-01T13:33:53;92481.31;;;-4.66
72405;BMP280;60395;52.020;113.548;2023-03-01T13:37:10;92485.50;;;-4.72
72405;BMP280;60395;52.020;113.548;2023-03-01T13:43:30;92482.53;;;-4.83
72405;BMP280;60395;52.020;113.548;2023-03-01T13:46:35;92469.78;;;-4.96
72405;BMP280;60395;52.020;113.548;2023-03-01T13:49:55;92465.00;;;-5.04
72405;BMP280;60395;52.020;113.548;2023-03-01T13:53:05;92469.56;;;-5.02
72405;BMP280;60395;52.020;113.548;2023-03-01T13:56:12;92461.53;;;-4.95
72405;BMP280;60395;52.020;113.548;2023-03-01T13:59:19;92450.13;;;-4.92
72405;BMP280;60395;52.020;113.548;2023-03-01T14:02:23;92444.03;;;-4.85
72405;BMP280;60395;52.020;113.548;2023-03-01T14:05:27;92445.03;;;-4.76
72405;BMP280;60395;52.020;113.548;2023-03-01T14:08:37;92441.31;;;-4.73
72405;BMP280;60395;52.020;113.548;2023-03-01T14:12:03;92429.81;;;-4.72
72405;BMP280;60395;52.020;113.548;2023-03-01T14:15:19;92436.59;;;-4.78
72405;BMP280;60395;52.020;113.548;2023-03-01T14:18:43;92423.88;;;-4.76
72405;BMP280;60395;52.020;113.548;2023-03-01T14:25:35;92404.50;;;-4.48
72405;BMP280;60395;52.020;113.548;2023-03-01T14:28:42;92416.28;;;-4.41
72405;BMP280;60395;52.020;113.548;2023-03-01T14:31:45;92408.41;;;-4.29
72405;BMP280;60395;52.020;113.548;2023-03-01T14:34:56;92418.88;;;-4.23
72405;BMP280;60395;52.020;113.548;2023-03-01T14:37:59;92401.03;;;-4.21
72405;BMP280;60395;52.020;113.548;2023-03-01T14:44:24;92405.78;;;-4.14
72405;BMP280;60395;52.020;113.548;2023-03-01T14:47:35;92400.03;;;-4.14
72405;BMP280;60395;52.020;113.548;2023-03-01T14:50:42;92396.13;;;-4.15
72405;BMP280;60395;52.020;113.548;2023-03-01T14:53:46;92393.63;;;-4.13
72405;BMP280;60395;52.020;113.548;2023-03-01T14:57:00;92393.63;;;-4.13
72405;BMP280;60395;52.020;113.548;2023-03-01T15:00:06;92384.72;;;-4.12
72405;BMP280;60395;52.020;113.548;2023-03-01T15:03:18;92396.44;;;-4.07
72405;BMP280;60395;52.020;113.548;2023-03-01T15:06:23;92385.88;;;-3.97
72405;BMP280;60395;52.020;113.548;2023-03-01T15:09:26;92384.38;;;-3.87
72405;BMP280;60395;52.020;113.548;2023-03-01T15:15:36;92362.72;;;-3.64
72405;BMP280;60395;52.020;113.548;2023-03-01T15:18:46;92366.34;;;-3.51
72405;BMP280;60395;52.020;113.548;2023-03-01T15:21:51;92357.63;;;-3.44
72405;BMP280;60395;52.020;113.548;2023-03-01T15:24:55;92342.88;;;-3.44
72405;BMP280;60395;52.020;113.548;2023-03-01T15:27:59;92336.50;;;-3.43
72405;BMP280;60395;52.020;113.548;2023-03-01T15:31:22;92327.41;;;-3.46
72405;BMP280;60395;52.020;113.548;2023-03-01T15:34:28;92331.88;;;-3.46
72405;BMP280;60395;52.020;113.548;2023-03-01T15:37:44;92322.34;;;-3.44
72405;BMP280;60395;52.020;113.548;2023-03-01T15:40:51;92314.06;;;-3.42
72405;BMP280;60395;52.020;113.548;2023-03-01T15:43:54;92310.38;;;-3.37
72405;BMP280;60395;52.020;113.548;2023-03-01T15:46:58;92320.16;;;-3.32
72405;BMP280;60395;52.020;113.548;2023-03-01T15:50:02;92310.16;;;-3.23
72405;BMP280;60395;52.020;113.548;2023-03-01T15:53:12;92318.91;;;-3.11
72405;BMP280;60395;52.020;113.548;2023-03-01T15:56:17;92307.41;;;-3.10
72405;BMP280;60395;52.020;113.548;2023-03-01T15:59:20;92306.72;;;-3.10
72405;BMP280;60395;52.020;113.548;2023-03-01T16:02:25;92295.84;;;-3.09
72405;BMP280;60395;52.020;113.548;2023-03-01T16:05:33;92290.72;;;-3.09
72405;BMP280;60395;52.020;113.548;2023-03-01T16:08:38;92281.94;;;-3.02
72405;BMP280;60395;52.020;113.548;2023-03-01T16:11:41;92270.97;;;-3.04
72405;BMP280;60395;52.020;113.548;2023-03-01T16:14:46;92274.72;;;-3.07
72405;BMP280;60395;52.020;113.548;2023-03-01T16:17:51;92276.63;;;-3.08
72405;BMP280;60395;52.020;113.548;2023-03-01T16:20:58;92273.47;;;-3.06
72405;BMP280;60395;52.020;113.548;2023-03-01T16:24:02;92276.16;;;-3.02
72405;BMP280;60395;52.020;113.548;2023-03-01T16:27:06;92271.75;;;-3.00
72405;BMP280;60395;52.020;113.548;2023-03-01T16:30:11;92281.34;;;-3.00
72405;BMP280;60395;52.020;113.548;2023-03-01T16:33:14;92281.91;;;-3.04
72405;BMP280;60395;52.020;113.548;2023-03-01T16:36:35;92270.34;;;-3.03
72405;BMP280;60395;52.020;113.548;2023-03-01T16:39:39;92273.06;;;-2.99
72405;BMP280;60395;52.020;113.548;2023-03-01T16:42:42;92271.66;;;-3.02
72405;BMP280;60395;52.020;113.548;2023-03-01T16:45:46;92269.66;;;-3.05
72405;BMP280;60395;52.020;113.548;2023-03-01T16:48:49;92278.06;;;-3.03
72405;BMP280;60395;52.020;113.548;2023-03-01T16:51:56;92263.91;;;-3.04
72405;BMP280;60395;52.020;113.548;2023-03-01T16:54:59;92265.75;;;-3.06
72405;BMP280;60395;52.020;113.548;2023-03-01T16:58:03;92262.59;;;-3.05
72405;BMP280;60395;52.020;113.548;2023-03-01T17:01:09;92256.84;;;-3.03
72405;BMP280;60395;52.020;113.548;2023-03-01T17:04:13;92259.41;;;-3.03
72405;BMP280;60395;52.020;113.548;2023-03-01T17:07:17;92262.78;;;-2.99
72405;BMP280;60395;52.020;113.548;2023-03-01T17:10:20;92254.00;;;-2.92
72405;BMP280;60395;52.020;113.548;2023-03-01T17:13:24;92263.75;;;-2.88
72405;BMP280;60395;52.020;113.548;2023-03-01T17:16:28;92265.84;;;-2.82
72405;BMP280;60395;52.020;113.548;2023-03-01T17:19:31;92258.19;;;-2.80
72405;BMP280;60395;52.020;113.548;2023-03-01T17:22:35;92273.09;;;-2.77
72405;BMP280;60395;52.020;113.548;2023-03-01T17:25:42;92268.59;;;-2.76
72405;BMP280;60395;52.020;113.548;2023-03-01T17:28:48;92271.19;;;-2.76
72405;BMP280;60395;52.020;113.548;2023-03-01T17:31:54;92282.75;;;-2.75
72405;BMP280;60395;52.020;113.548;2023-03-01T17:34:58;92271.09;;;-2.78
72405;BMP280;60395;52.020;113.548;2023-03-01T17:38:02;92272.47;;;-2.75
72405;BMP280;60395;52.020;113.548;2023-03-01T17:41:07;92274.50;;;-2.72
72405;BMP280;60395;52.020;113.548;2023-03-01T17:44:12;92273.31;;;-2.69
72405;BMP280;60395;52.020;113.548;2023-03-01T17:47:15;92262.38;;;-2.69
72405;BMP280;60395;52.020;113.548;2023-03-01T17:50:19;92261.78;;;-2.68
72405;BMP280;60395;52.020;113.548;2023-03-01T17:53:22;92264.28;;;-2.70
72405;BMP280;60395;52.020;113.548;2023-03-01T17:56:25;92264.25;;;-2.72
72405;BMP280;60395;52.020;113.548;2023-03-01T17:59:29;92269.41;;;-2.70
72405;BMP280;60395;52.020;113.548;2023-03-01T18:02:35;92261.06;;;-2.70
72405;BMP280;60395;52.020;113.548;2023-03-01T18:05:38;92256.47;;;-2.74
72405;BMP280;60395;52.020;113.548;2023-03-01T18:08:42;92256.47;;;-2.74
72405;BMP280;60395;52.020;113.548;2023-03-01T18:11:47;92256.63;;;-2.68
72405;BMP280;60395;52.020;113.548;2023-03-01T18:14:51;92257.28;;;-2.67
72405;BMP280;60395;52.020;113.548;2023-03-01T18:17:57;92265.56;;;-2.71
72405;BMP280;60395;52.020;113.548;2023-03-01T18:21:01;92258.44;;;-2.72
72405;BMP280;60395;52.020;113.548;2023-03-01T18:24:04;92253.19;;;-2.76
72405;BMP280;60395;52.020;113.548;2023-03-01T18:27:09;92259.03;;;-2.74
72405;BMP280;60395;52.020;113.548;2023-03-01T18:30:13;92269.78;;;-2.79
72405;BMP280;60395;52.020;113.548;2023-03-01T18:33:17;92251.09;;;-2.82
72405;BMP280;60395;52.020;113.548;2023-03-01T18:36:24;92251.03;;;-2.84
72405;BMP280;60395;52.020;113.548;2023-03-01T18:39:28;92255.44;;;-2.87
72405;BMP280;60395;52.020;113.548;2023-03-01T18:42:31;92263.75;;;-2.88